createdAt,value
2018-04-29T00:01:44.508Z,16.80
2018-04-29T00:04:12.031Z,16.80
2018-04-29T00:06:39.791Z,16.80
2018-04-29T00:09:07.556Z,16.80
2018-04-29T00:11:35.392Z,16.80
2018-04-29T00:14:02.391Z,16.80
2018-04-29T00:16:29.392Z,16.80
2018-04-29T00:18:56.391Z,16.80
2018-04-29T00:21:23.388Z,16.80
2018-04-29T00:23:51.165Z,16.80
2018-04-29T00:26:18.931Z,16.80
2018-04-29T00:28:46.691Z,16.80
2018-04-29T00:31:14.456Z,16.80
2018-04-29T00:33:42.293Z,16.80
2018-04-29T00:36:09.290Z,16.80
2018-04-29T00:38:36.397Z,16.80
2018-04-29T00:41:04.068Z,16.80
2018-04-29T00:43:31.837Z,16.80
2018-04-29T00:45:58.849Z,16.80
2018-04-29T00:48:25.847Z,16.80
2018-04-29T00:50:52.882Z,16.80
2018-04-29T00:53:20.814Z,16.80
2018-04-29T00:55:47.735Z,16.80
2018-04-29T00:58:14.736Z,16.80
2018-04-29T01:00:42.512Z,16.80
2018-04-29T01:03:09.545Z,16.80
2018-04-29T01:05:37.316Z,16.80
2018-04-29T01:08:05.085Z,16.80
2018-04-29T01:10:32.196Z,16.80
2018-04-29T01:12:59.206Z,16.80
2018-04-29T01:15:26.208Z,16.80
2018-04-29T01:17:54.152Z,16.80
2018-04-29T01:20:21.164Z,16.80
2018-04-29T01:22:48.160Z,16.80
2018-04-29T01:25:15.940Z,16.80
2018-04-29T01:27:43.708Z,16.80
2018-04-29T01:30:10.726Z,16.80
2018-04-29T01:32:37.728Z,16.80
2018-04-29T01:35:04.724Z,16.80
2018-04-29T01:37:32.488Z,16.80
2018-04-29T01:40:00.259Z,16.70
2018-04-29T01:42:28.029Z,16.80
2018-04-29T01:44:55.872Z,16.70
2018-04-29T01:47:22.917Z,16.80
2018-04-29T01:49:50.059Z,16.80
2018-04-29T01:52:17.834Z,16.80
2018-04-29T01:54:44.835Z,16.80
2018-04-29T01:57:11.848Z,16.70
2018-04-29T01:59:39.611Z,16.70
2018-04-29T02:02:07.383Z,16.80
2018-04-29T02:04:34.376Z,16.70
2018-04-29T02:07:01.383Z,16.70
2018-04-29T02:09:28.393Z,16.80
2018-04-29T02:11:55.397Z,16.80
2018-04-29T02:14:22.397Z,16.80
2018-04-29T02:16:50.164Z,16.70
2018-04-29T02:19:17.937Z,16.70
2018-04-29T02:21:45.700Z,16.70
2018-04-29T02:24:12.699Z,16.70
2018-04-29T02:26:39.695Z,16.70
2018-04-29T02:29:06.694Z,16.70
2018-04-29T02:31:33.700Z,16.70
2018-04-29T02:34:00.803Z,16.70
2018-04-29T02:36:27.850Z,16.70
2018-04-29T02:38:54.872Z,16.70
2018-04-29T02:41:21.873Z,16.70
2018-04-29T02:43:48.875Z,16.80
2018-04-29T02:46:15.879Z,16.80
2018-04-29T02:48:42.884Z,16.70
2018-04-29T02:51:09.896Z,16.70
2018-04-29T02:53:36.972Z,16.80
2018-04-29T02:56:03.973Z,16.70
2018-04-29T02:58:30.968Z,16.80
2018-04-29T03:00:57.972Z,16.70
2018-04-29T03:03:24.972Z,16.70
2018-04-29T03:05:52.736Z,16.70
2018-04-29T03:08:20.507Z,16.70
2018-04-29T03:10:48.276Z,16.70
2018-04-29T03:13:15.272Z,16.70
2018-04-29T03:15:42.287Z,16.70
2018-04-29T03:18:09.289Z,16.70
2018-04-29T03:20:36.330Z,16.80
2018-04-29T03:23:03.333Z,16.70
2018-04-29T03:25:30.325Z,16.70
2018-04-29T03:27:57.344Z,16.70
2018-04-29T03:30:24.362Z,16.70
2018-04-29T03:32:51.364Z,16.70
2018-04-29T03:35:18.369Z,16.70
2018-04-29T03:37:45.365Z,16.70
2018-04-29T03:40:13.207Z,16.70
2018-04-29T03:42:40.260Z,16.70
2018-04-29T03:45:07.264Z,16.70
2018-04-29T03:47:34.268Z,16.70
2018-04-29T03:50:02.042Z,16.70
2018-04-29T03:52:29.813Z,16.70
2018-04-29T03:57:36.868Z,16.70
2018-04-29T04:00:09.738Z,16.70
2018-04-29T04:02:42.859Z,16.70
2018-04-29T04:05:09.816Z,16.70
2018-04-29T04:07:37.588Z,16.70
2018-04-29T04:10:05.374Z,16.70
2018-04-29T04:12:32.399Z,16.70
2018-04-29T04:15:00.237Z,16.70
2018-04-29T04:17:27.265Z,16.70
2018-04-29T04:19:54.272Z,16.70
2018-04-29T04:22:21.268Z,16.70
2018-04-29T04:24:48.272Z,16.70
2018-04-29T04:27:15.272Z,16.70
2018-04-29T04:29:42.288Z,16.70
2018-04-29T04:32:09.287Z,16.70
2018-04-29T04:34:37.059Z,16.70
2018-04-29T04:37:04.084Z,16.70
2018-04-29T04:39:31.865Z,16.70
2018-04-29T04:41:59.632Z,16.70
2018-04-29T04:44:26.654Z,16.70
2018-04-29T04:46:53.676Z,16.70
2018-04-29T04:49:20.716Z,16.70
2018-04-29T04:51:47.719Z,16.70
2018-04-29T04:54:14.731Z,16.70
2018-04-29T04:56:41.737Z,16.70
2018-04-29T04:59:08.748Z,16.70
2018-04-29T05:01:36.549Z,16.70
2018-04-29T05:04:03.556Z,16.70
2018-04-29T05:06:31.324Z,16.70
2018-04-29T05:08:58.324Z,16.70
2018-04-29T05:11:25.379Z,16.70
2018-04-29T05:13:52.380Z,16.70
2018-04-29T05:16:19.380Z,16.70
2018-04-29T05:18:46.385Z,16.70
2018-04-29T05:21:13.384Z,16.70
2018-04-29T05:23:40.477Z,16.70
2018-04-29T05:26:07.491Z,16.60
2018-04-29T05:28:35.259Z,16.70
2018-04-29T05:31:02.264Z,16.70
2018-04-29T05:33:29.267Z,16.70
2018-04-29T05:35:57.094Z,16.70
2018-04-29T05:38:24.880Z,16.60
2018-04-29T05:40:52.639Z,16.70
2018-04-29T05:43:19.655Z,16.70
2018-04-29T05:45:46.665Z,16.70
2018-04-29T05:48:13.772Z,16.70
2018-04-29T05:50:41.567Z,16.70
2018-04-29T05:53:08.572Z,16.70
2018-04-29T05:55:35.592Z,16.70
2018-04-29T05:58:02.597Z,16.60
2018-04-29T06:00:29.644Z,16.70
2018-04-29T06:02:56.608Z,16.60
2018-04-29T06:05:23.623Z,16.60
2018-04-29T06:07:50.619Z,16.70
2018-04-29T06:10:17.692Z,16.60
2018-04-29T06:12:44.803Z,16.60
2018-04-29T06:15:11.837Z,16.60
2018-04-29T06:17:38.845Z,16.70
2018-04-29T06:20:06.612Z,16.70
2018-04-29T06:22:34.448Z,16.60
2018-04-29T06:25:01.458Z,16.60
2018-04-29T06:27:28.465Z,16.60
2018-04-29T06:29:56.239Z,16.60
2018-04-29T06:32:23.251Z,16.60
2018-04-29T06:34:50.260Z,16.60
2018-04-29T06:37:17.276Z,16.70
2018-04-29T06:39:45.554Z,16.70
2018-04-29T06:42:13.325Z,16.70
2018-04-29T06:44:40.332Z,16.60
2018-04-29T06:47:07.324Z,16.70
2018-04-29T06:49:34.341Z,16.60
2018-04-29T06:52:01.338Z,16.60
2018-04-29T06:54:28.341Z,16.60
2018-04-29T06:56:56.105Z,16.60
2018-04-29T06:59:23.944Z,16.60
2018-04-29T07:01:50.952Z,16.60
2018-04-29T07:04:17.955Z,16.60
2018-04-29T07:06:45.721Z,16.60
2018-04-29T07:09:13.485Z,16.60
2018-04-29T07:11:41.252Z,16.60
2018-04-29T07:14:09.059Z,16.60
2018-04-29T07:16:36.057Z,16.60
2018-04-29T07:19:03.877Z,16.60
2018-04-29T07:21:31.186Z,16.60
2018-04-29T07:23:58.215Z,16.70
2018-04-29T07:26:25.705Z,16.60
2018-04-29T07:28:52.700Z,16.70
2018-04-29T07:31:19.721Z,16.60
2018-04-29T07:33:46.720Z,16.60
2018-04-29T07:36:14.496Z,16.60
2018-04-29T07:38:41.536Z,16.60
2018-04-29T07:41:08.555Z,16.60
2018-04-29T07:43:35.560Z,16.60
2018-04-29T07:46:02.569Z,16.70
2018-04-29T07:48:30.335Z,16.60
2018-04-29T07:50:58.383Z,16.70
2018-04-29T07:53:25.427Z,16.60
2018-04-29T07:55:52.434Z,16.70
2018-04-29T07:58:19.446Z,16.70
2018-04-29T08:00:47.276Z,16.60
2018-04-29T08:03:14.369Z,16.60
2018-04-29T08:05:42.211Z,16.60
2018-04-29T08:08:09.226Z,16.60
2018-04-29T08:10:36.252Z,16.60
2018-04-29T08:13:03.265Z,16.60
2018-04-29T08:15:31.076Z,16.70
2018-04-29T08:17:58.114Z,16.60
2018-04-29T08:20:25.156Z,16.60
2018-04-29T08:22:52.162Z,16.60
2018-04-29T08:25:19.978Z,16.60
2018-04-29T08:27:47.196Z,16.60
2018-04-29T08:30:15.033Z,16.60
2018-04-29T08:32:43.465Z,16.60
2018-04-29T08:35:10.573Z,16.60
2018-04-29T08:37:37.610Z,16.60
2018-04-29T08:40:04.615Z,16.60
2018-04-29T08:42:31.616Z,16.60
2018-04-29T08:44:58.615Z,16.60
2018-04-29T08:47:25.622Z,16.60
2018-04-29T08:49:53.397Z,16.60
2018-04-29T08:52:20.409Z,16.60
2018-04-29T08:54:47.416Z,16.60
2018-04-29T08:57:14.431Z,16.60
2018-04-29T08:59:41.428Z,16.60
2018-04-29T09:02:08.460Z,16.60
2018-04-29T09:04:35.468Z,16.70
2018-04-29T09:07:03.248Z,16.60
2018-04-29T09:09:30.252Z,16.60
2018-04-29T09:11:57.297Z,16.60
2018-04-29T09:14:24.513Z,16.60
2018-04-29T09:16:52.952Z,16.60
2018-04-29T09:19:20.177Z,16.60
2018-04-29T09:21:48.377Z,16.60
2018-04-29T09:24:15.417Z,16.60
2018-04-29T09:26:43.196Z,16.60
2018-04-29T09:29:10.960Z,16.70
2018-04-29T09:31:38.059Z,16.60
2018-04-29T09:34:05.059Z,16.60
2018-04-29T09:36:32.056Z,16.60
2018-04-29T09:38:59.121Z,16.60
2018-04-29T09:41:26.186Z,16.60
2018-04-29T09:43:53.948Z,16.70
2018-04-29T09:46:21.716Z,16.70
2018-04-29T09:48:49.557Z,16.70
2018-04-29T09:51:16.567Z,16.70
2018-04-29T09:53:43.574Z,16.70
2018-04-29T09:56:10.581Z,16.70
2018-04-29T09:58:37.584Z,16.70
2018-04-29T10:01:11.342Z,16.70
2018-04-29T10:03:38.308Z,16.60
2018-04-29T10:06:05.329Z,16.70
2018-04-29T10:08:32.337Z,16.70
2018-04-29T10:11:00.109Z,16.70
2018-04-29T10:13:27.114Z,16.70
2018-04-29T10:15:54.120Z,16.70
2018-04-29T10:18:21.157Z,16.70
2018-04-29T10:20:48.188Z,16.70
2018-04-29T10:23:16.973Z,16.70
2018-04-29T10:25:44.736Z,16.70
2018-04-29T10:28:12.512Z,16.70
2018-04-29T10:30:39.518Z,16.70
2018-04-29T10:33:06.598Z,16.70
2018-04-29T10:35:33.555Z,16.70
2018-04-29T10:38:00.560Z,16.70
2018-04-29T10:40:27.557Z,16.70
2018-04-29T10:42:54.659Z,16.70
2018-04-29T10:45:21.668Z,16.70
2018-04-29T10:47:48.682Z,16.80
2018-04-29T10:50:16.450Z,16.80
2018-04-29T10:52:44.220Z,16.70
2018-04-29T10:55:11.219Z,16.70
2018-04-29T10:57:38.554Z,16.70
2018-04-29T11:00:05.552Z,16.70
2018-04-29T11:02:33.322Z,16.70
2018-04-29T11:05:01.089Z,16.70
2018-04-29T11:07:28.860Z,16.80
2018-04-29T11:09:55.868Z,16.70
2018-04-29T11:12:22.869Z,16.80
2018-04-29T11:14:49.875Z,16.80
2018-04-29T11:17:16.871Z,16.80
2018-04-29T11:19:43.960Z,16.80
2018-04-29T11:22:11.357Z,16.80
2018-04-29T11:24:38.408Z,16.80
2018-04-29T11:27:05.416Z,16.80
2018-04-29T11:29:32.407Z,16.80
2018-04-29T11:31:59.412Z,16.80
2018-04-29T11:34:26.428Z,16.80
2018-04-29T11:36:53.434Z,16.90
2018-04-29T11:39:20.444Z,16.90
2018-04-29T11:41:48.952Z,16.90
2018-04-29T11:44:15.960Z,16.90
2018-04-29T11:46:42.999Z,16.80
2018-04-29T11:49:10.008Z,16.90
2018-04-29T11:51:37.020Z,17.00
2018-04-29T11:54:04.804Z,17.00
2018-04-29T11:56:31.808Z,17.00
2018-04-29T11:58:58.818Z,17.00
2018-04-29T12:01:25.813Z,17.10
2018-04-29T12:03:52.808Z,17.10
2018-04-29T12:06:19.808Z,17.10
2018-04-29T12:08:47.612Z,17.10
2018-04-29T12:11:14.625Z,17.10
2018-04-29T12:13:42.388Z,17.10
2018-04-29T12:16:10.156Z,17.10
2018-04-29T12:18:37.932Z,17.10
2018-04-29T12:21:04.960Z,17.10
2018-04-29T12:23:32.813Z,17.10
2018-04-29T12:25:59.977Z,17.10
2018-04-29T12:28:27.829Z,17.10
2018-04-29T12:30:54.831Z,17.10
2018-04-29T12:33:21.840Z,17.10
2018-04-29T12:35:49.616Z,17.10
2018-04-29T12:38:16.667Z,17.10
2018-04-29T12:40:43.708Z,17.10
2018-04-29T12:43:11.471Z,17.10
2018-04-29T12:45:38.485Z,17.10
2018-04-29T12:48:05.492Z,17.10
2018-04-29T12:50:32.492Z,17.10
2018-04-29T12:53:00.333Z,17.40
2018-04-29T12:55:27.331Z,17.40
2018-04-29T12:57:54.337Z,17.60
2018-04-29T13:00:21.436Z,17.70
2018-04-29T13:02:49.188Z,17.70
2018-04-29T13:05:16.295Z,17.70
2018-04-29T13:07:43.349Z,17.70
2018-04-29T13:10:11.117Z,17.60
2018-04-29T13:12:38.967Z,17.50
2018-04-29T13:15:05.972Z,17.50
2018-04-29T13:17:32.981Z,17.50
2018-04-29T13:20:00.836Z,17.50
2018-04-29T13:22:27.843Z,17.50
2018-04-29T13:24:54.846Z,17.50
2018-04-29T13:27:23.538Z,17.40
2018-04-29T13:29:50.552Z,17.40
2018-04-29T13:32:17.556Z,17.40
2018-04-29T13:34:44.555Z,17.40
2018-04-29T13:37:11.600Z,17.40
2018-04-29T13:39:38.595Z,17.40
2018-04-29T13:42:05.722Z,17.40
2018-04-29T13:44:33.457Z,17.40
2018-04-29T13:47:00.467Z,17.30
2018-04-29T13:49:27.489Z,17.40
2018-04-29T13:51:54.493Z,17.40
2018-04-29T13:54:21.500Z,17.40
2018-04-29T13:56:48.499Z,17.40
2018-04-29T13:59:16.276Z,17.40
2018-04-29T14:01:44.256Z,17.40
2018-04-29T14:04:11.204Z,17.40
2018-04-29T14:06:38.207Z,17.40
2018-04-29T14:09:05.212Z,17.40
2018-04-29T14:11:32.215Z,17.40
2018-04-29T14:13:59.988Z,17.70
2018-04-29T14:16:27.761Z,17.60
2018-04-29T14:18:54.779Z,17.60
2018-04-29T14:21:21.784Z,17.60
2018-04-29T14:23:48.787Z,17.60
2018-04-29T14:26:16.555Z,17.60
2018-04-29T14:28:44.324Z,17.60
2018-04-29T14:31:11.352Z,17.60
2018-04-29T14:33:38.345Z,17.60
2018-04-29T14:36:05.348Z,17.50
2018-04-29T14:38:33.197Z,17.50
2018-04-29T14:41:00.265Z,17.50
2018-04-29T14:43:27.217Z,17.50
2018-04-29T14:45:54.995Z,17.50
2018-04-29T14:48:21.999Z,17.50
2018-04-29T14:50:49.763Z,17.50
2018-04-29T14:53:16.771Z,17.50
2018-04-29T14:55:43.792Z,17.50
2018-04-29T14:58:10.801Z,17.50
2018-04-29T15:00:37.831Z,17.50
2018-04-29T15:03:04.823Z,17.50
2018-04-29T15:05:32.601Z,17.60
2018-04-29T15:07:59.593Z,17.60
2018-04-29T15:10:26.638Z,17.60
2018-04-29T15:12:53.625Z,17.60
2018-04-29T15:15:21.391Z,17.80
2018-04-29T15:17:49.154Z,17.70
2018-04-29T15:20:16.153Z,17.70
2018-04-29T15:22:43.166Z,17.70
2018-04-29T15:25:10.176Z,17.80
2018-04-29T15:27:37.176Z,17.70
2018-04-29T15:30:04.185Z,17.80
2018-04-29T15:32:31.952Z,17.80
2018-04-29T15:34:58.976Z,17.80
2018-04-29T15:37:25.980Z,17.80
2018-04-29T15:39:52.992Z,17.70
2018-04-29T15:42:20.756Z,17.70
2018-04-29T15:44:48.547Z,17.70
2018-04-29T15:47:15.547Z,17.70
2018-04-29T15:49:42.553Z,17.70
2018-04-29T15:52:09.555Z,17.70
2018-04-29T15:54:37.332Z,17.70
2018-04-29T15:57:04.336Z,17.70
2018-04-29T15:59:31.348Z,17.70
2018-04-29T16:01:58.436Z,17.60
2018-04-29T16:04:25.440Z,17.60
2018-04-29T16:06:52.440Z,17.60
2018-04-29T16:09:20.203Z,17.60
2018-04-29T16:11:48.064Z,17.60
2018-04-29T16:14:15.759Z,17.60
2018-04-29T16:16:42.769Z,17.60
2018-04-29T16:19:09.771Z,17.60
2018-04-29T16:21:36.777Z,17.60
2018-04-29T16:24:04.552Z,17.60
2018-04-29T16:26:31.552Z,17.60
2018-04-29T16:28:58.568Z,17.60
2018-04-29T16:31:25.572Z,17.60
2018-04-29T16:33:53.345Z,17.60
2018-04-29T16:36:21.968Z,17.60
2018-04-29T16:38:48.996Z,17.60
2018-04-29T16:41:16.030Z,17.60
2018-04-29T16:43:43.032Z,17.60
2018-04-29T16:46:10.045Z,17.60
2018-04-29T16:48:37.054Z,17.60
2018-04-29T16:51:04.833Z,17.70
2018-04-29T16:53:32.604Z,17.60
2018-04-29T16:55:59.612Z,17.60
2018-04-29T16:58:26.686Z,17.60
2018-04-29T17:00:54.453Z,17.60
2018-04-29T17:03:22.219Z,17.60
2018-04-29T17:05:49.993Z,17.70
2018-04-29T17:08:17.107Z,17.60
2018-04-29T17:10:44.164Z,17.60
2018-04-29T17:13:11.931Z,17.60
2018-04-29T17:15:39.744Z,17.60
2018-04-29T17:18:06.765Z,17.60
2018-04-29T17:20:33.775Z,17.60
2018-04-29T17:23:00.780Z,17.70
2018-04-29T17:25:27.880Z,17.60
2018-04-29T17:27:54.823Z,17.60
2018-04-29T17:30:22.617Z,17.70
2018-04-29T17:32:49.619Z,17.60
2018-04-29T17:35:16.694Z,17.60
2018-04-29T17:37:43.716Z,17.60
2018-04-29T17:40:10.715Z,17.60
2018-04-29T17:42:37.727Z,17.60
2018-04-29T17:45:05.488Z,17.60
2018-04-29T17:47:33.307Z,17.70
2018-04-29T17:50:00.313Z,17.60
2018-04-29T17:52:28.123Z,17.70
2018-04-29T17:54:55.136Z,17.70
2018-04-29T17:57:22.161Z,17.60
2018-04-29T17:59:49.936Z,17.70
2018-04-29T18:02:16.951Z,17.60
2018-04-29T18:04:43.957Z,17.60
2018-04-29T18:07:10.960Z,17.70
2018-04-29T18:09:38.736Z,17.70
2018-04-29T18:12:05.736Z,17.70
2018-04-29T18:14:32.924Z,17.70
2018-04-29T18:17:00.281Z,17.70
2018-04-29T18:19:27.317Z,17.70
2018-04-29T18:21:55.090Z,17.70
2018-04-29T18:24:23.162Z,17.70
2018-04-29T18:26:50.205Z,17.70
2018-04-29T18:29:18.099Z,17.70
2018-04-29T18:31:45.131Z,17.60
2018-04-29T18:34:12.651Z,17.70
2018-04-29T18:36:41.163Z,17.70
2018-04-29T18:39:09.593Z,17.70
2018-04-29T18:41:36.707Z,17.70
2018-04-29T18:44:04.461Z,17.70
2018-04-29T18:46:31.466Z,17.70
2018-04-29T18:48:58.482Z,17.70
2018-04-29T18:51:25.665Z,17.70
2018-04-29T18:53:52.617Z,17.70
2018-04-29T18:56:19.713Z,17.70
2018-04-29T18:58:46.644Z,17.70
2018-04-29T19:01:13.660Z,17.70
2018-04-29T19:03:41.429Z,17.70
2018-04-29T19:06:09.200Z,17.70
2018-04-29T19:08:36.978Z,17.70
2018-04-29T19:11:03.985Z,17.70
2018-04-29T19:13:30.996Z,17.70
2018-04-29T19:15:58.005Z,17.70
2018-04-29T19:18:25.781Z,17.80
2018-04-29T19:20:52.844Z,17.70
2018-04-29T19:23:19.847Z,17.70
2018-04-29T19:25:46.859Z,17.70
2018-04-29T19:28:13.855Z,17.70
2018-04-29T19:30:41.632Z,17.70
2018-04-29T19:33:08.632Z,17.70
2018-04-29T19:35:35.644Z,17.70
2018-04-29T19:38:02.649Z,17.70
2018-04-29T19:40:30.427Z,17.70
2018-04-29T19:42:57.436Z,17.70
2018-04-29T19:45:24.450Z,17.70
2018-04-29T19:47:51.464Z,17.70
2018-04-29T19:50:18.579Z,17.70
2018-04-29T19:52:45.589Z,17.70
2018-04-29T19:55:12.676Z,17.70
2018-04-29T19:57:39.635Z,17.70
2018-04-29T20:00:07.405Z,17.70
2018-04-29T20:02:35.244Z,17.70
2018-04-29T20:05:02.265Z,17.70
2018-04-29T20:07:29.293Z,17.70
2018-04-29T20:09:56.298Z,17.70
2018-04-29T20:12:24.091Z,17.70
2018-04-29T20:14:51.104Z,17.70
2018-04-29T20:17:18.877Z,17.70
2018-04-29T20:19:46.728Z,17.70
2018-04-29T20:22:13.748Z,17.70
2018-04-29T20:24:40.782Z,17.70
2018-04-29T20:27:07.789Z,17.70
2018-04-29T20:29:35.563Z,17.70
2018-04-29T20:32:02.575Z,17.70
2018-04-29T20:34:29.581Z,17.70
2018-04-29T20:36:56.589Z,17.70
2018-04-29T20:39:24.378Z,17.70
2018-04-29T20:41:51.385Z,17.70
2018-04-29T20:44:18.401Z,17.70
2018-04-29T20:46:45.409Z,17.70
2018-04-29T20:49:12.427Z,17.70
2018-04-29T20:51:40.205Z,17.70
2018-04-29T20:54:07.984Z,17.70
2018-04-29T20:56:34.975Z,17.70
2018-04-29T20:59:01.984Z,17.70
2018-04-29T21:01:28.985Z,17.70
2018-04-29T21:03:55.996Z,17.70
2018-04-29T21:06:23.032Z,17.70
2018-04-29T21:08:50.029Z,17.70
2018-04-29T21:11:17.804Z,17.60
2018-04-29T21:13:45.569Z,17.70
2018-04-29T21:16:13.336Z,17.70
2018-04-29T21:18:41.268Z,17.70
2018-04-29T21:21:08.289Z,17.60
2018-04-29T21:23:35.284Z,17.60
2018-04-29T21:26:03.056Z,17.60
2018-04-29T21:28:30.823Z,17.60
2018-04-29T21:30:57.829Z,17.60
2018-04-29T21:33:24.831Z,17.70
2018-04-29T21:35:51.830Z,17.70
2018-04-29T21:38:18.848Z,17.60
2018-04-29T21:40:45.843Z,17.60
2018-04-29T21:43:12.840Z,17.60
2018-04-29T21:45:39.839Z,17.60
2018-04-29T21:48:07.620Z,17.70
2018-04-29T21:50:34.624Z,17.60
2018-04-29T21:53:01.623Z,17.60
2018-04-29T21:55:28.630Z,17.60
2018-04-29T21:57:56.402Z,17.60
2018-04-29T22:00:24.165Z,17.60
2018-04-29T22:02:51.946Z,17.60
2018-04-29T22:05:18.949Z,17.60
2018-04-29T22:07:45.951Z,17.60
2018-04-29T22:10:12.955Z,17.60
2018-04-29T22:12:39.956Z,17.60
2018-04-29T22:15:07.620Z,17.60
2018-04-29T22:17:34.692Z,17.60
2018-04-29T22:20:01.706Z,17.60
2018-04-29T22:22:28.712Z,17.60
2018-04-29T22:24:56.481Z,17.70
2018-04-29T22:27:24.253Z,17.60
2018-04-29T22:29:51.250Z,17.60
2018-04-29T22:32:18.256Z,17.60
2018-04-29T22:34:45.252Z,17.60
2018-04-29T22:37:12.304Z,17.60
2018-04-29T22:39:39.271Z,17.60
2018-04-29T22:42:07.040Z,17.60
2018-04-29T22:44:34.829Z,17.60
2018-04-29T22:47:01.830Z,17.60
2018-04-29T22:49:28.845Z,17.60
2018-04-29T22:51:55.854Z,17.60
2018-04-29T22:54:22.853Z,17.60
2018-04-29T22:56:49.856Z,17.60
2018-04-29T22:59:16.860Z,17.60
2018-04-29T23:01:44.634Z,17.60
2018-04-29T23:04:12.404Z,17.60
2018-04-29T23:06:40.172Z,17.60
2018-04-29T23:09:07.932Z,17.60
2018-04-29T23:11:35.702Z,17.60
2018-04-29T23:14:02.702Z,17.60
2018-04-29T23:16:29.704Z,17.60
2018-04-29T23:18:56.708Z,17.60
2018-04-29T23:21:23.733Z,17.60
2018-04-29T23:23:50.728Z,17.60
2018-04-29T23:26:17.733Z,17.60
2018-04-29T23:28:44.727Z,17.60
2018-04-29T23:31:11.725Z,17.60
2018-04-29T23:33:38.725Z,17.60
2018-04-29T23:36:05.728Z,17.60
2018-04-29T23:38:32.732Z,17.60
2018-04-29T23:40:59.815Z,17.60
2018-04-29T23:43:26.823Z,17.60
2018-04-29T23:45:53.822Z,17.50
2018-04-29T23:48:20.825Z,17.50
2018-04-29T23:50:47.828Z,17.60
2018-04-29T23:53:15.623Z,17.60
2018-04-29T23:55:42.639Z,17.50
2018-04-29T23:58:10.420Z,17.60
